createdAt,value
2022-12-01T00:01:10.242Z,11.29
2022-12-01T00:03:37.109Z,11.25
2022-12-01T00:06:17.902Z,11.43
2022-12-01T00:09:06.166Z,11.39
2022-12-01T00:11:34.167Z,11.46
2022-12-01T00:14:01.503Z,11.45
2022-12-01T00:16:28.401Z,11.51
2022-12-01T00:18:55.413Z,11.48
2022-12-01T00:21:24.223Z,11.36
2022-12-01T00:23:53.564Z,11.33
2022-12-01T00:26:21.354Z,11.49
2022-12-01T00:28:58.425Z,11.21
2022-12-01T00:31:26.772Z,11.47
2022-12-01T00:33:54.024Z,11.32
2022-12-01T00:36:21.126Z,11.44
2022-12-01T00:38:47.899Z,11.49
2022-12-01T00:41:14.600Z,11.48
2022-12-01T00:43:41.458Z,11.39
2022-12-01T00:46:08.440Z,11.40
2022-12-01T00:48:35.151Z,11.49
2022-12-01T00:51:01.960Z,11.55
2022-12-01T00:53:28.686Z,11.48
2022-12-01T00:55:55.526Z,11.40
2022-12-01T00:58:23.224Z,11.22
2022-12-01T01:00:51.138Z,11.25
2022-12-01T01:03:17.839Z,11.29
2022-12-01T01:05:44.645Z,11.37
2022-12-01T01:08:13.642Z,11.36
2022-12-01T01:10:45.420Z,11.24
2022-12-01T01:13:13.311Z,11.26
2022-12-01T01:15:40.324Z,11.27
2022-12-01T01:18:07.440Z,11.35
2022-12-01T01:20:34.198Z,11.40
2022-12-01T01:23:01.213Z,11.19
2022-12-01T01:25:28.017Z,11.26
2022-12-01T01:27:54.800Z,11.38
2022-12-01T01:30:21.681Z,11.20
2022-12-01T01:32:48.592Z,11.11
2022-12-01T01:35:15.302Z,11.23
2022-12-01T01:37:42.033Z,10.91
2022-12-01T01:40:09.281Z,10.69
2022-12-01T01:42:35.961Z,10.68
2022-12-01T01:45:03.119Z,10.85
2022-12-01T01:47:34.497Z,10.92
2022-12-01T01:50:06.542Z,10.86
2022-12-01T01:52:40.628Z,10.97
2022-12-01T01:55:07.949Z,10.64
2022-12-01T01:57:34.985Z,10.81
2022-12-01T02:00:08.779Z,10.71
2022-12-01T02:02:44.849Z,10.93
2022-12-01T02:05:18.570Z,10.71
2022-12-01T02:07:46.742Z,10.73
2022-12-01T02:10:14.721Z,10.67
2022-12-01T02:12:56.696Z,10.65
2022-12-01T02:15:48.071Z,10.80
2022-12-01T02:18:26.133Z,10.94
2022-12-01T02:21:05.170Z,10.82
2022-12-01T02:24:03.008Z,10.72
2022-12-01T02:26:32.870Z,10.87
2022-12-01T02:29:31.064Z,10.52
2022-12-01T02:32:10.493Z,10.62
2022-12-01T02:35:01.446Z,10.86
2022-12-01T02:38:03.963Z,10.71
2022-12-01T02:40:36.667Z,10.84
2022-12-01T02:43:12.461Z,10.66
2022-12-01T02:45:52.251Z,10.51
2022-12-01T02:48:31.598Z,10.66
2022-12-01T02:51:06.779Z,10.58
2022-12-01T02:53:34.167Z,10.75
2022-12-01T02:56:01.029Z,10.58
2022-12-01T02:58:27.854Z,10.87
2022-12-01T03:01:22.399Z,10.54
2022-12-01T03:04:21.646Z,10.48
2022-12-01T03:07:19.801Z,10.79
2022-12-01T03:09:55.276Z,10.81
2022-12-01T03:12:59.746Z,10.56
2022-12-01T03:15:38.084Z,10.80
2022-12-01T03:18:38.912Z,10.47
2022-12-01T03:21:28.527Z,10.48
2022-12-01T03:24:00.077Z,10.33
2022-12-01T03:26:29.692Z,10.51
2022-12-01T03:29:00.100Z,10.53
2022-12-01T03:31:32.273Z,10.26
2022-12-01T03:34:18.087Z,10.15
2022-12-01T03:36:52.026Z,10.36
2022-12-01T03:39:26.671Z,10.39
2022-12-01T03:42:04.496Z,10.45
2022-12-01T03:44:35.347Z,10.39
2022-12-01T03:47:04.682Z,10.30
2022-12-01T03:49:31.483Z,10.30
2022-12-01T03:52:16.939Z,10.37
2022-12-01T03:55:01.860Z,10.38
2022-12-01T03:57:35.921Z,9.94
2022-12-01T04:00:04.459Z,10.32
2022-12-01T04:02:39.486Z,10.71
2022-12-01T04:05:06.958Z,10.63
2022-12-01T04:07:33.678Z,10.91
2022-12-01T04:10:00.525Z,10.89
2022-12-01T04:12:30.138Z,10.97
2022-12-01T04:14:57.979Z,10.74
2022-12-01T04:17:25.447Z,10.76
2022-12-01T04:19:52.846Z,10.56
2022-12-01T04:22:19.813Z,10.53
2022-12-01T04:24:46.445Z,10.53
2022-12-01T04:27:13.286Z,10.30
2022-12-01T04:29:39.968Z,10.67
2022-12-01T04:32:07.274Z,10.52
2022-12-01T04:34:34.079Z,10.74
2022-12-01T04:37:00.894Z,10.46
2022-12-01T04:39:27.582Z,10.47
2022-12-01T04:41:54.380Z,10.35
2022-12-01T04:44:21.101Z,10.47
2022-12-01T04:46:47.816Z,10.68
2022-12-01T04:49:14.501Z,10.55
2022-12-01T04:51:41.245Z,10.28
2022-12-01T04:54:07.879Z,10.45
2022-12-01T04:56:34.761Z,10.19
2022-12-01T04:59:01.503Z,10.71
2022-12-01T05:01:28.311Z,10.75
2022-12-01T05:03:55.199Z,10.84
2022-12-01T05:06:24.571Z,10.81
2022-12-01T05:08:52.131Z,10.96
2022-12-01T05:11:19.156Z,10.87
2022-12-01T05:13:47.527Z,10.82
2022-12-01T05:16:28.651Z,10.71
2022-12-01T05:19:16.628Z,10.69
2022-12-01T05:21:45.095Z,10.81
2022-12-01T05:24:13.492Z,10.67
2022-12-01T05:26:41.642Z,10.66
2022-12-01T05:29:08.851Z,10.70
2022-12-01T05:31:35.732Z,10.70
2022-12-01T05:34:02.827Z,10.63
2022-12-01T05:36:29.613Z,10.70
2022-12-01T05:38:56.284Z,10.62
2022-12-01T05:41:23.043Z,10.89
2022-12-01T05:43:49.767Z,10.87
2022-12-01T05:46:16.488Z,10.91
2022-12-01T05:48:43.216Z,10.85
2022-12-01T05:51:11.565Z,10.79
2022-12-01T05:53:38.727Z,10.75
2022-12-01T05:56:06.702Z,10.89
2022-12-01T05:58:33.720Z,10.80
2022-12-01T06:01:00.954Z,10.81
2022-12-01T06:03:27.685Z,10.90
2022-12-01T06:05:54.447Z,10.84
2022-12-01T06:08:21.104Z,10.94
2022-12-01T06:10:47.887Z,10.99
2022-12-01T06:13:14.748Z,11.05
2022-12-01T06:15:41.488Z,11.02
2022-12-01T06:18:08.183Z,10.95
2022-12-01T06:20:34.829Z,11.02
2022-12-01T06:23:01.586Z,11.01
2022-12-01T06:25:28.312Z,11.13
2022-12-01T06:27:58.604Z,11.17
2022-12-01T06:30:25.874Z,11.05
2022-12-01T06:32:52.755Z,10.89
2022-12-01T06:35:19.672Z,11.12
2022-12-01T06:37:46.410Z,11.19
2022-12-01T06:40:13.342Z,10.93
2022-12-01T06:42:40.009Z,11.16
2022-12-01T06:45:07.008Z,11.08
2022-12-01T06:47:33.792Z,11.09
2022-12-01T06:50:00.750Z,11.14
2022-12-01T06:52:28.247Z,11.15
2022-12-01T06:54:54.956Z,11.09
2022-12-01T06:57:22.113Z,11.11
2022-12-01T06:59:49.577Z,10.90
2022-12-01T07:02:17.156Z,11.09
2022-12-01T07:04:47.286Z,11.06
2022-12-01T07:07:14.021Z,11.09
2022-12-01T07:09:40.741Z,11.18
2022-12-01T07:12:07.715Z,11.07
2022-12-01T07:14:34.704Z,10.89
2022-12-01T07:17:01.432Z,11.13
2022-12-01T07:19:28.266Z,10.83
2022-12-01T07:21:54.969Z,10.84
2022-12-01T07:24:21.678Z,10.86
2022-12-01T07:26:48.317Z,10.83
2022-12-01T07:29:15.253Z,10.90
2022-12-01T07:31:41.940Z,11.09
2022-12-01T07:34:11.546Z,11.02
2022-12-01T07:36:38.289Z,10.66
2022-12-01T07:39:06.577Z,11.09
2022-12-01T07:41:33.931Z,11.14
2022-12-01T07:44:01.075Z,11.07
2022-12-01T07:46:28.921Z,10.95
2022-12-01T07:48:56.825Z,10.61
2022-12-01T07:51:24.938Z,10.91
2022-12-01T07:53:53.569Z,11.04
2022-12-01T07:56:21.153Z,10.89
2022-12-01T07:58:47.901Z,11.14
2022-12-01T08:01:18.297Z,10.97
2022-12-01T08:03:45.366Z,10.96
2022-12-01T08:06:12.827Z,10.84
2022-12-01T08:08:40.950Z,10.95
2022-12-01T08:11:16.395Z,11.27
2022-12-01T08:13:43.474Z,11.17
2022-12-01T08:16:14.199Z,11.12
2022-12-01T08:18:42.046Z,11.24
2022-12-01T08:21:13.996Z,11.13
2022-12-01T08:23:42.149Z,11.35
2022-12-01T08:26:12.866Z,11.18
2022-12-01T08:28:40.111Z,11.26
2022-12-01T08:31:14.455Z,10.85
2022-12-01T08:33:41.456Z,11.05
2022-12-01T08:36:08.622Z,10.88
2022-12-01T08:38:35.682Z,11.24
2022-12-01T08:41:04.699Z,10.73
2022-12-01T08:43:56.491Z,10.96
2022-12-01T08:46:18.696Z,10.87
2022-12-01T08:48:45.937Z,10.76
2022-12-01T08:51:18.403Z,10.84
2022-12-01T08:53:47.598Z,10.79
2022-12-01T08:56:17.362Z,11.04
2022-12-01T08:58:44.522Z,11.01
2022-12-01T09:01:15.072Z,10.98
2022-12-01T09:03:42.649Z,10.44
2022-12-01T09:06:13.850Z,10.44
2022-12-01T09:08:41.274Z,10.81
2022-12-01T09:11:11.879Z,10.67
2022-12-01T09:13:39.765Z,10.97
2022-12-01T09:16:09.138Z,10.81
2022-12-01T09:18:36.467Z,10.02
2022-12-01T09:21:14.481Z,10.45
2022-12-01T09:23:43.187Z,10.74
2022-12-01T09:26:13.566Z,10.64
2022-12-01T09:28:53.440Z,10.87
2022-12-01T09:31:26.030Z,11.10
2022-12-01T09:34:07.277Z,10.89
2022-12-01T09:36:40.346Z,10.29
2022-12-01T09:39:11.876Z,10.72
2022-12-01T09:41:48.058Z,10.59
2022-12-01T09:44:45.490Z,10.72
2022-12-01T09:47:40.659Z,10.88
2022-12-01T09:50:15.709Z,10.54
2022-12-01T09:52:47.496Z,10.64
2022-12-01T09:55:16.586Z,10.86
2022-12-01T09:57:44.465Z,11.23
2022-12-01T10:00:16.255Z,10.99
2022-12-01T10:02:49.378Z,11.21
2022-12-01T10:05:20.540Z,11.38
2022-12-01T10:07:50.944Z,10.89
2022-12-01T10:10:29.023Z,10.76
2022-12-01T10:12:55.984Z,10.85
2022-12-01T10:15:46.729Z,10.72
2022-12-01T10:18:29.005Z,11.21
2022-12-01T10:21:08.956Z,11.29
2022-12-01T10:23:51.680Z,11.25
2022-12-01T10:26:29.139Z,11.56
2022-12-01T10:29:28.086Z,11.33
2022-12-01T10:32:03.840Z,10.93
2022-12-01T10:34:42.809Z,10.87
2022-12-01T10:37:24.433Z,11.35
2022-12-01T10:39:58.856Z,11.53
2022-12-01T10:42:42.796Z,11.31
2022-12-01T10:45:28.567Z,10.93
2022-12-01T10:48:18.893Z,11.31
2022-12-01T10:50:57.513Z,11.45
2022-12-01T10:53:24.465Z,11.19
2022-12-01T10:55:58.608Z,11.45
2022-12-01T10:58:26.482Z,11.63
2022-12-01T11:01:00.366Z,11.58
2022-12-01T11:03:31.568Z,11.07
2022-12-01T11:06:03.379Z,11.45
2022-12-01T11:08:54.204Z,11.26
2022-12-01T11:11:31.677Z,10.97
2022-12-01T11:14:01.169Z,11.18
2022-12-01T11:16:38.126Z,11.22
2022-12-01T11:19:32.644Z,11.40
2022-12-01T11:22:02.245Z,11.54
2022-12-01T11:24:45.331Z,11.24
2022-12-01T11:27:23.925Z,11.36
2022-12-01T11:29:55.403Z,11.40
2022-12-01T11:32:26.189Z,11.60
2022-12-01T11:35:06.589Z,11.22
2022-12-01T11:37:38.459Z,11.34
2022-12-01T11:40:18.600Z,11.17
2022-12-01T11:42:57.669Z,11.59
2022-12-01T11:45:29.439Z,11.79
2022-12-01T11:48:00.767Z,11.22
2022-12-01T11:50:31.254Z,11.29
2022-12-01T11:52:57.985Z,11.38
2022-12-01T11:55:27.579Z,11.22
2022-12-01T11:57:57.323Z,11.48
2022-12-01T12:00:30.286Z,11.85
2022-12-01T12:03:06.080Z,11.83
2022-12-01T12:05:49.113Z,11.41
2022-12-01T12:08:40.874Z,11.45
2022-12-01T12:11:24.549Z,11.06
2022-12-01T12:14:11.593Z,11.03
2022-12-01T12:16:57.505Z,11.04
2022-12-01T12:20:07.144Z,10.97
2022-12-01T12:23:31.692Z,10.93
2022-12-01T12:26:11.336Z,11.09
2022-12-01T12:28:50.061Z,11.51
2022-12-01T12:31:35.468Z,11.89
2022-12-01T12:34:23.301Z,11.35
2022-12-01T12:37:02.746Z,11.76
2022-12-01T12:39:49.443Z,11.79
2022-12-01T12:42:39.163Z,11.71
2022-12-01T12:45:30.603Z,11.43
2022-12-01T12:48:03.865Z,11.51
2022-12-01T12:50:43.728Z,11.25
2022-12-01T12:53:16.774Z,11.64
2022-12-01T12:55:46.628Z,11.79
2022-12-01T12:58:20.357Z,11.50
2022-12-01T13:00:52.656Z,11.63
2022-12-01T13:03:35.758Z,11.65
2022-12-01T13:06:13.607Z,11.88
2022-12-01T13:08:46.150Z,11.64
2022-12-01T13:11:22.806Z,11.38
2022-12-01T13:14:13.749Z,11.29
2022-12-01T13:16:42.860Z,11.66
2022-12-01T13:19:21.171Z,11.42
2022-12-01T13:21:50.273Z,11.49
2022-12-01T13:24:24.268Z,11.77
2022-12-01T13:27:00.674Z,11.90
2022-12-01T13:29:29.747Z,11.72
2022-12-01T13:31:56.501Z,11.53
2022-12-01T13:34:34.790Z,11.69
2022-12-01T13:37:01.823Z,11.49
2022-12-01T13:39:36.748Z,11.79
2022-12-01T13:42:07.024Z,11.76
2022-12-01T13:44:42.790Z,11.84
2022-12-01T13:47:12.703Z,11.95
2022-12-01T13:49:48.780Z,12.09
2022-12-01T13:52:16.325Z,11.83
2022-12-01T13:55:08.055Z,11.67
2022-12-01T13:57:52.979Z,11.64
2022-12-01T14:00:27.242Z,11.66
2022-12-01T14:03:15.426Z,11.96
2022-12-01T14:05:42.212Z,11.81
2022-12-01T14:08:24.512Z,11.78
2022-12-01T14:10:59.830Z,11.62
2022-12-01T14:13:29.161Z,11.96
2022-12-01T14:16:01.388Z,11.84
2022-12-01T14:18:35.853Z,11.67
2022-12-01T14:21:05.751Z,11.81
2022-12-01T14:23:34.999Z,11.85
2022-12-01T14:26:11.252Z,11.93
2022-12-01T14:29:05.960Z,11.96
2022-12-01T14:31:32.799Z,11.90
2022-12-01T14:34:07.661Z,11.88
2022-12-01T14:36:48.812Z,11.77
2022-12-01T14:39:35.161Z,11.54
2022-12-01T14:42:13.043Z,11.61
2022-12-01T14:44:47.819Z,11.59
2022-12-01T14:47:27.929Z,11.39
2022-12-01T14:50:11.870Z,11.24
2022-12-01T14:52:47.771Z,11.44
2022-12-01T14:55:37.772Z,11.48
2022-12-01T14:58:07.693Z,11.41
2022-12-01T15:00:37.892Z,11.33
2022-12-01T15:03:13.415Z,11.27
2022-12-01T15:05:42.459Z,11.07
2022-12-01T15:09:25.290Z,11.48
2022-12-01T15:11:26.529Z,11.11
2022-12-01T15:13:54.778Z,10.97
2022-12-01T15:16:29.225Z,11.25
2022-12-01T15:18:56.508Z,11.48
2022-12-01T15:21:26.375Z,11.06
2022-12-01T15:23:59.714Z,11.14
2022-12-01T15:26:33.886Z,11.09
2022-12-01T15:29:24.845Z,11.23
2022-12-01T15:31:59.386Z,11.16
2022-12-01T15:34:37.515Z,11.42
2022-12-01T15:37:08.614Z,11.38
2022-12-01T15:39:37.723Z,11.56
2022-12-01T15:42:04.677Z,11.59
2022-12-01T15:44:37.585Z,11.39
2022-12-01T15:47:32.369Z,11.57
2022-12-01T15:49:59.078Z,11.48
2022-12-01T15:52:26.253Z,11.27
2022-12-01T15:54:53.323Z,11.14
2022-12-01T15:57:21.294Z,11.21
2022-12-01T15:59:53.837Z,11.47
2022-12-01T16:02:23.115Z,11.28
2022-12-01T16:05:25.765Z,11.37
2022-12-01T16:10:41.654Z,11.19
2022-12-01T16:13:42.096Z,11.36
2022-12-01T16:16:31.744Z,10.91
2022-12-01T16:19:07.734Z,10.87
2022-12-01T16:21:48.267Z,11.06
2022-12-01T16:24:17.857Z,10.90
2022-12-01T16:27:05.546Z,11.24
2022-12-01T16:29:44.414Z,11.16
2022-12-01T16:32:21.300Z,10.91
2022-12-01T16:34:52.676Z,10.91
2022-12-01T16:37:21.659Z,11.07
2022-12-01T16:39:48.580Z,10.91
2022-12-01T16:42:17.554Z,10.73
2022-12-01T16:44:48.380Z,10.61
2022-12-01T16:47:24.333Z,10.98
2022-12-01T16:49:52.039Z,11.21
2022-12-01T16:55:25.858Z,11.02
2022-12-01T16:57:52.655Z,11.17
2022-12-01T17:00:21.059Z,11.22
2022-12-01T17:02:48.707Z,11.40
2022-12-01T17:05:15.756Z,11.36
2022-12-01T17:07:42.575Z,11.64
2022-12-01T17:10:09.906Z,11.44
2022-12-01T17:12:36.625Z,11.53
2022-12-01T17:15:04.483Z,11.48
2022-12-01T17:17:34.251Z,11.45
2022-12-01T17:20:00.992Z,11.14
2022-12-01T17:22:28.085Z,11.23
2022-12-01T17:24:55.908Z,11.54
2022-12-01T17:27:27.767Z,11.62
2022-12-01T17:29:55.724Z,11.43
2022-12-01T17:32:22.517Z,11.37
2022-12-01T17:34:50.093Z,11.22
2022-12-01T17:37:20.969Z,11.42
2022-12-01T17:39:48.291Z,11.63
2022-12-01T17:42:15.146Z,11.48
2022-12-01T17:44:42.892Z,11.51
2022-12-01T17:47:09.757Z,11.45
2022-12-01T17:49:36.726Z,11.27
2022-12-01T17:52:04.707Z,11.16
2022-12-01T17:54:31.874Z,11.18
2022-12-01T17:56:58.911Z,11.42
2022-12-01T17:59:26.188Z,11.23
2022-12-01T18:01:53.148Z,11.33
2022-12-01T18:04:20.869Z,11.31
2022-12-01T18:06:53.547Z,11.45
2022-12-01T18:09:21.898Z,11.32
2022-12-01T18:11:49.259Z,11.36
2022-12-01T18:14:19.464Z,11.25
2022-12-01T18:16:47.951Z,11.12
2022-12-01T18:19:14.726Z,11.27
2022-12-01T18:21:41.800Z,11.22
2022-12-01T18:24:09.504Z,11.27
2022-12-01T18:26:38.896Z,11.21
2022-12-01T18:29:15.819Z,11.42
2022-12-01T18:31:42.993Z,10.69
2022-12-01T18:34:11.313Z,11.09
2022-12-01T18:36:40.028Z,10.99
2022-12-01T18:39:09.180Z,10.76
2022-12-01T18:41:36.313Z,10.96
2022-12-01T18:44:04.511Z,10.72
2022-12-01T18:46:31.453Z,10.69
2022-12-01T18:49:02.923Z,10.85
2022-12-01T18:51:32.093Z,11.10
2022-12-01T18:54:00.149Z,11.13
2022-12-01T18:56:27.743Z,10.93
2022-12-01T18:59:02.273Z,10.83
2022-12-01T19:01:44.025Z,11.29
2022-12-01T19:04:12.335Z,11.22
2022-12-01T19:06:40.388Z,11.34
2022-12-01T19:09:10.800Z,11.04
2022-12-01T19:11:38.665Z,10.98
2022-12-01T19:14:05.612Z,11.23
2022-12-01T19:16:33.284Z,10.91
2022-12-01T19:19:02.814Z,10.64
2022-12-01T19:21:29.616Z,10.88
2022-12-01T19:23:56.441Z,11.00
2022-12-01T19:26:24.152Z,11.20
2022-12-01T19:28:51.010Z,10.98
2022-12-01T19:31:22.846Z,11.06
2022-12-01T19:33:50.963Z,11.33
2022-12-01T19:36:20.043Z,10.94
2022-12-01T19:38:47.620Z,11.12
2022-12-01T19:41:15.584Z,11.11
2022-12-01T19:43:43.136Z,11.38
2022-12-01T19:46:18.751Z,11.31
2022-12-01T19:48:45.945Z,11.36
2022-12-01T19:51:25.758Z,11.27
2022-12-01T19:53:53.675Z,11.27
2022-12-01T19:56:21.211Z,11.26
2022-12-01T19:58:48.158Z,11.23
2022-12-01T20:01:16.921Z,10.83
2022-12-01T20:03:48.544Z,11.10
2022-12-01T20:06:20.032Z,11.27
2022-12-01T20:08:47.385Z,11.38
2022-12-01T20:11:14.733Z,11.40
2022-12-01T20:13:43.394Z,10.89
2022-12-01T20:16:16.933Z,11.19
2022-12-01T20:18:44.243Z,11.03
2022-12-01T20:21:16.502Z,11.15
2022-12-01T20:23:58.237Z,11.35
2022-12-01T20:26:30.832Z,11.14
2022-12-01T20:29:06.518Z,11.15
2022-12-01T20:31:34.187Z,11.24
2022-12-01T20:34:04.026Z,11.02
2022-12-01T20:36:30.953Z,11.14
2022-12-01T20:38:58.382Z,10.90
2022-12-01T20:41:25.162Z,11.17
2022-12-01T20:43:51.960Z,11.09
2022-12-01T20:46:18.954Z,11.13
2022-12-01T20:48:46.230Z,10.97
2022-12-01T20:51:14.955Z,10.99
2022-12-01T20:54:05.479Z,11.11
2022-12-01T20:56:35.259Z,10.99
2022-12-01T20:59:02.136Z,10.93
2022-12-01T21:01:29.235Z,11.20
2022-12-01T21:03:56.097Z,11.11
2022-12-01T21:06:23.527Z,11.18
2022-12-01T21:08:51.182Z,11.29
2022-12-01T21:11:42.993Z,11.18
2022-12-01T21:14:16.527Z,10.95
2022-12-01T21:16:48.139Z,11.27
2022-12-01T21:19:20.271Z,11.32
2022-12-01T21:21:47.217Z,10.74
2022-12-01T21:24:19.983Z,10.64
2022-12-01T21:26:57.112Z,10.70
2022-12-01T21:29:29.211Z,10.61
2022-12-01T21:31:59.147Z,10.97
2022-12-01T21:34:27.604Z,10.80
2022-12-01T21:36:57.750Z,10.69
2022-12-01T21:39:25.342Z,10.72
2022-12-01T21:41:53.975Z,11.07
2022-12-01T21:44:22.482Z,11.10
2022-12-01T21:46:53.701Z,11.18
2022-12-01T21:49:22.515Z,11.00
2022-12-01T21:51:50.935Z,10.69
2022-12-01T21:54:20.935Z,11.19
2022-12-01T21:56:48.794Z,11.34
2022-12-01T21:59:23.325Z,11.11
2022-12-01T22:01:55.536Z,11.16
2022-12-01T22:04:24.906Z,11.21
2022-12-01T22:06:53.477Z,11.28
2022-12-01T22:09:23.508Z,11.02
2022-12-01T22:11:58.170Z,10.91
2022-12-01T22:14:29.811Z,10.83
2022-12-01T22:16:59.669Z,10.84
2022-12-01T22:19:42.402Z,11.12
2022-12-01T22:22:12.361Z,11.29
2022-12-01T22:24:46.119Z,11.01
2022-12-01T22:27:31.431Z,10.90
2022-12-01T22:30:07.905Z,10.94
2022-12-01T22:32:47.292Z,11.13
2022-12-01T22:35:24.309Z,11.10
2022-12-01T22:38:00.048Z,11.16
2022-12-01T22:40:41.437Z,11.21
2022-12-01T22:43:18.037Z,11.10
2022-12-01T22:45:49.469Z,11.09
2022-12-01T22:48:25.539Z,11.26
2022-12-01T22:50:52.702Z,11.24
2022-12-01T22:53:26.547Z,11.25
2022-12-01T22:55:57.346Z,11.27
2022-12-01T22:58:38.184Z,11.44
2022-12-01T23:01:17.760Z,11.43
2022-12-01T23:03:44.679Z,11.34
2022-12-01T23:06:48.611Z,11.35
2022-12-01T23:09:15.907Z,11.23
2022-12-01T23:11:45.214Z,11.28
2022-12-01T23:14:17.060Z,11.12
2022-12-01T23:16:47.225Z,11.33
2022-12-01T23:19:14.520Z,11.51
2022-12-01T23:21:47.114Z,11.40
2022-12-01T23:24:16.597Z,11.55
2022-12-01T23:26:49.731Z,11.56
2022-12-01T23:29:27.100Z,11.62
2022-12-01T23:31:58.928Z,11.32
2022-12-01T23:34:31.095Z,11.31
2022-12-01T23:36:57.868Z,11.41
2022-12-01T23:39:33.629Z,11.43
2022-12-01T23:42:00.518Z,11.41
2022-12-01T23:44:43.006Z,11.52
2022-12-01T23:47:22.991Z,11.48
2022-12-01T23:49:55.759Z,11.53
2022-12-01T23:52:34.296Z,11.29
2022-12-01T23:55:06.463Z,10.94
2022-12-01T23:57:33.602Z,10.94
